Eola, Illinois
Current Conditions -  °F | °C
As of 2:52 AM on Saturday 25 Oct 2014 (Local Time) from KDPA Reporting Station
Few Clouds Few Clouds  
Wind Chill: 52°   Ceiling: Unl
Heat Index: 52°   Visibility: 10mi
Dew Point: 48°   Wind: 6mph
Humidity: 86%   Direction: 220°SW
Pressure: 29.9"   Gusts: NA
Location:  41.78°N, 88.24°W
Report Text: KDPA 250752Z 22005KT 10SM FEW010 11/09 A2990 RMK AO2 SLP123 T01110089
Loading
Personal Weather Stations






























Interactive Weather Map
Tropical Storm Tracking
New forecast layout! Learn more

10-Day Weather Forecast

Advertisements
Track Severe Weather on mobile